createdAt,value
2019-01-23T00:00:26.052Z,41.70
2019-01-23T00:02:54.356Z,37.27
2019-01-23T00:05:22.879Z,39.20
2019-01-23T00:07:51.204Z,35.00
2019-01-23T00:10:19.693Z,39.00
2019-01-23T00:12:48.021Z,33.77
2019-01-23T00:15:16.311Z,35.47
2019-01-23T00:17:44.620Z,49.63
2019-01-23T00:20:13.049Z,35.33
2019-01-23T00:22:41.335Z,31.73
2019-01-23T00:25:10.010Z,36.07
2019-01-23T00:27:38.337Z,36.03
2019-01-23T00:30:09.899Z,36.10
2019-01-23T00:32:38.186Z,36.90
2019-01-23T00:35:07.221Z,36.37
2019-01-23T00:37:35.504Z,36.70
2019-01-23T00:40:05.708Z,35.87
2019-01-23T00:42:33.979Z,40.03
2019-01-23T00:45:02.538Z,39.33
2019-01-23T00:47:30.821Z,36.93
2019-01-23T00:49:59.140Z,39.83
2019-01-23T00:52:27.416Z,38.77
2019-01-23T00:54:55.711Z,36.17
2019-01-23T00:57:24.331Z,37.87
2019-01-23T00:59:52.618Z,38.83
2019-01-23T01:02:20.921Z,38.23
2019-01-23T01:04:49.198Z,38.10
2019-01-23T01:07:17.494Z,41.77
2019-01-23T01:09:46.043Z,43.23
2019-01-23T01:12:14.350Z,40.00
2019-01-23T01:14:42.644Z,37.23
2019-01-23T01:17:10.953Z,36.70
2019-01-23T01:19:39.490Z,32.30
2019-01-23T01:22:08.068Z,36.13
2019-01-23T01:24:36.354Z,36.17
2019-01-23T01:27:05.087Z,37.37
2019-01-23T01:29:33.383Z,33.53
2019-01-23T01:32:01.656Z,39.77
2019-01-23T01:34:29.957Z,32.93
2019-01-23T01:36:58.247Z,37.00
2019-01-23T01:39:26.561Z,36.03
2019-01-23T01:41:54.856Z,35.23
2019-01-23T01:44:23.157Z,33.77
2019-01-23T01:46:51.687Z,35.53
2019-01-23T01:49:20.242Z,35.47
2019-01-23T01:51:48.519Z,30.97
2019-01-23T01:54:16.833Z,34.90
2019-01-23T01:56:45.120Z,32.10
2019-01-23T01:59:13.404Z,32.80
2019-01-23T02:01:41.701Z,30.67
2019-01-23T02:04:09.984Z,32.07
2019-01-23T02:06:38.599Z,31.70
2019-01-23T02:09:08.185Z,28.90
2019-01-23T02:11:36.479Z,31.30
2019-01-23T02:14:05.023Z,29.57
2019-01-23T02:16:33.320Z,29.70
2019-01-23T02:19:01.606Z,30.73
2019-01-23T02:21:29.908Z,32.27
2019-01-23T02:23:58.512Z,29.53
2019-01-23T02:26:27.052Z,30.60
2019-01-23T02:28:55.334Z,31.93
2019-01-23T02:31:23.641Z,31.30
2019-01-23T02:33:52.172Z,29.17
2019-01-23T02:36:20.453Z,36.00
2019-01-23T02:38:48.756Z,30.33
2019-01-23T02:41:17.030Z,27.30
2019-01-23T02:43:45.329Z,27.10
2019-01-23T02:46:13.863Z,28.53
2019-01-23T02:48:42.162Z,28.30
2019-01-23T02:51:10.440Z,28.37
2019-01-23T02:53:38.749Z,28.37
2019-01-23T02:56:07.039Z,27.93
2019-01-23T02:58:35.342Z,29.27
2019-01-23T03:01:03.630Z,27.07
2019-01-23T03:03:32.184Z,26.53
2019-01-23T03:06:00.536Z,30.07
2019-01-23T03:08:28.816Z,26.37
2019-01-23T03:10:57.359Z,27.50
2019-01-23T03:13:25.640Z,29.50
2019-01-23T03:15:53.946Z,27.93
2019-01-23T03:18:22.490Z,29.40
2019-01-23T03:20:51.039Z,27.00
2019-01-23T03:23:19.324Z,26.77
2019-01-23T03:25:47.878Z,26.43
2019-01-23T03:28:16.157Z,26.67
2019-01-23T03:30:44.450Z,27.20
2019-01-23T03:33:12.735Z,27.67
2019-01-23T03:35:41.039Z,26.83
2019-01-23T03:38:09.897Z,28.50
2019-01-23T03:40:38.182Z,28.37
2019-01-23T03:43:06.479Z,26.80
2019-01-23T03:45:34.773Z,29.23
2019-01-23T03:48:03.079Z,25.90
2019-01-23T03:50:31.357Z,27.83
2019-01-23T03:52:59.659Z,29.90
2019-01-23T03:55:27.953Z,26.90
2019-01-23T03:57:56.249Z,26.00
2019-01-23T04:00:24.534Z,30.20
2019-01-23T04:02:53.072Z,27.07
2019-01-23T04:05:21.429Z,28.60
2019-01-23T04:07:49.814Z,28.33
2019-01-23T04:10:18.262Z,27.70
2019-01-23T04:12:46.812Z,28.47
2019-01-23T04:15:16.564Z,26.27
2019-01-23T04:17:45.010Z,26.20
2019-01-23T04:20:18.009Z,27.47
2019-01-23T04:22:46.304Z,26.70
2019-01-23T04:25:14.845Z,26.33
2019-01-23T04:27:43.123Z,28.80
2019-01-23T04:30:17.387Z,27.50
2019-01-23T04:32:45.673Z,27.83
2019-01-23T04:35:14.111Z,26.63
2019-01-23T04:37:42.855Z,26.93
2019-01-23T04:40:12.809Z,26.67
2019-01-23T04:42:41.094Z,27.10
2019-01-23T04:45:12.383Z,28.43
2019-01-23T04:47:40.745Z,27.47
2019-01-23T04:50:11.375Z,28.43
2019-01-23T04:52:57.271Z,30.17
2019-01-23T04:55:25.554Z,28.23
2019-01-23T04:57:53.854Z,28.67
2019-01-23T05:00:26.853Z,25.60
2019-01-23T05:02:55.160Z,27.23
2019-01-23T05:05:23.446Z,30.47
2019-01-23T05:07:51.760Z,26.77
2019-01-23T05:10:20.401Z,30.13
2019-01-23T05:12:48.710Z,31.63
2019-01-23T05:15:17.238Z,28.17
2019-01-23T05:17:45.539Z,29.53
2019-01-23T05:20:15.486Z,27.90
2019-01-23T05:22:43.837Z,29.33
2019-01-23T05:25:12.609Z,32.87
2019-01-23T05:27:40.966Z,28.63
2019-01-23T05:30:15.731Z,30.60
2019-01-23T05:32:44.289Z,31.07
2019-01-23T05:35:12.654Z,33.03
2019-01-23T05:37:40.935Z,31.23
2019-01-23T05:40:10.053Z,28.53
2019-01-23T05:42:38.409Z,32.77
2019-01-23T05:45:10.609Z,33.13
2019-01-23T05:47:39.722Z,33.77
2019-01-23T05:50:10.820Z,31.67
2019-01-23T05:52:39.122Z,30.13
2019-01-23T05:55:09.345Z,32.20
2019-01-23T05:57:37.899Z,34.10
2019-01-23T06:00:12.148Z,34.60
2019-01-23T06:02:40.702Z,29.97
2019-01-23T06:05:09.826Z,30.97
2019-01-23T06:07:38.129Z,32.90
2019-01-23T06:10:08.455Z,30.63
2019-01-23T06:12:36.752Z,30.50
2019-01-23T06:15:08.146Z,31.70
2019-01-23T06:17:36.684Z,31.67
2019-01-23T06:20:08.312Z,32.43
2019-01-23T06:22:36.618Z,34.30
2019-01-23T06:25:05.970Z,33.90
2019-01-23T06:27:34.502Z,33.40
2019-01-23T06:30:10.079Z,35.67
2019-01-23T06:32:33.454Z,36.17
2019-01-23T06:35:01.752Z,31.67
2019-01-23T06:37:30.044Z,32.17
2019-01-23T06:39:58.341Z,33.33
2019-01-23T06:42:26.635Z,35.83
2019-01-23T06:44:54.939Z,36.33
2019-01-23T06:47:23.231Z,36.80
2019-01-23T06:49:51.532Z,33.40
2019-01-23T06:52:19.819Z,34.77
2019-01-23T06:54:48.119Z,37.53
2019-01-23T06:57:16.648Z,38.40
2019-01-23T06:59:44.936Z,37.33
2019-01-23T07:02:13.314Z,34.13
2019-01-23T07:04:41.595Z,40.00
2019-01-23T07:07:09.895Z,36.30
2019-01-23T07:09:38.184Z,34.83
2019-01-23T07:12:06.625Z,39.80
2019-01-23T07:14:34.906Z,37.37
2019-01-23T07:17:03.456Z,44.27
2019-01-23T07:19:31.978Z,39.67
2019-01-23T07:22:00.275Z,39.90
2019-01-23T07:24:28.564Z,38.90
2019-01-23T07:26:56.876Z,33.93
2019-01-23T07:29:25.164Z,40.97
2019-01-23T07:31:53.578Z,42.77
2019-01-23T07:34:21.868Z,42.97
2019-01-23T07:36:50.148Z,36.57
2019-01-23T07:39:18.459Z,36.80
2019-01-23T07:41:46.807Z,38.10
2019-01-23T07:44:15.087Z,37.27
2019-01-23T07:46:43.423Z,39.77
2019-01-23T07:49:11.676Z,36.30
2019-01-23T07:51:39.975Z,36.70
2019-01-23T07:54:08.261Z,38.90
2019-01-23T07:56:36.825Z,38.20
2019-01-23T07:59:05.183Z,36.20
2019-01-23T08:01:33.479Z,38.50
2019-01-23T08:04:01.761Z,37.57
2019-01-23T08:06:30.076Z,42.07
2019-01-23T08:08:58.354Z,36.93
2019-01-23T08:11:26.655Z,37.50
2019-01-23T08:13:54.976Z,33.60
2019-01-23T08:16:23.563Z,32.27
2019-01-23T08:18:51.863Z,35.63
2019-01-23T08:21:20.399Z,33.87
2019-01-23T08:23:48.709Z,32.90
2019-01-23T08:26:16.988Z,36.50
2019-01-23T08:28:45.283Z,38.10
2019-01-23T08:31:13.559Z,32.10
2019-01-23T08:33:41.861Z,32.57
2019-01-23T08:36:10.139Z,32.67
2019-01-23T08:38:38.446Z,29.37
2019-01-23T08:41:06.725Z,31.50
2019-01-23T08:43:35.245Z,33.97
2019-01-23T08:46:03.539Z,33.23
2019-01-23T08:48:31.822Z,32.03
2019-01-23T08:51:00.364Z,31.53
2019-01-23T08:53:28.645Z,30.33
2019-01-23T08:55:56.942Z,34.17
2019-01-23T08:58:25.218Z,27.77
2019-01-23T09:00:53.751Z,28.33
2019-01-23T09:03:22.281Z,27.87
2019-01-23T09:05:52.214Z,24.90
2019-01-23T09:08:20.821Z,26.17
2019-01-23T09:10:49.123Z,28.07
2019-01-23T09:13:17.400Z,30.43
2019-01-23T09:15:45.695Z,34.50
2019-01-23T09:18:14.057Z,37.60
2019-01-23T09:20:42.580Z,36.33
2019-01-23T09:23:10.920Z,35.90
2019-01-23T09:25:39.473Z,32.87
2019-01-23T09:28:07.778Z,33.27
2019-01-23T09:30:39.689Z,32.00
2019-01-23T09:33:26.116Z,29.43
2019-01-23T09:36:19.895Z,30.03
2019-01-23T09:39:09.539Z,34.03
2019-01-23T09:41:49.860Z,28.57
2019-01-23T09:44:35.915Z,28.70
2019-01-23T09:47:07.619Z,28.93
2019-01-23T09:49:44.708Z,27.23
2019-01-23T09:52:30.728Z,26.30
2019-01-23T09:54:59.032Z,26.20
2019-01-23T09:57:27.316Z,26.00
2019-01-23T09:59:55.609Z,24.33
2019-01-23T10:02:24.146Z,22.03
2019-01-23T10:04:52.669Z,20.67
2019-01-23T10:07:20.969Z,24.30
2019-01-23T10:09:49.243Z,22.93
2019-01-23T10:12:17.794Z,22.93
2019-01-23T10:14:46.082Z,22.13
2019-01-23T10:17:14.396Z,23.97
2019-01-23T10:19:42.680Z,23.10
2019-01-23T10:22:11.049Z,22.53
2019-01-23T10:24:39.334Z,18.60
2019-01-23T10:27:07.867Z,21.33
2019-01-23T10:29:36.159Z,19.13
2019-01-23T10:32:04.535Z,21.37
2019-01-23T10:34:32.823Z,21.53
2019-01-23T10:37:01.441Z,20.00
2019-01-23T10:39:29.806Z,17.83
2019-01-23T10:41:58.101Z,18.90
2019-01-23T10:44:26.456Z,18.63
2019-01-23T10:46:54.757Z,18.40
2019-01-23T10:49:23.036Z,20.47
2019-01-23T10:51:51.583Z,19.50
2019-01-23T10:54:20.118Z,20.13
2019-01-23T10:56:50.189Z,16.50
2019-01-23T10:59:18.749Z,20.00
2019-01-23T11:01:47.024Z,21.07
2019-01-23T11:04:15.317Z,21.83
2019-01-23T11:06:43.598Z,22.47
2019-01-23T11:09:12.196Z,20.03
2019-01-23T11:11:40.429Z,19.57
2019-01-23T11:14:08.750Z,17.10
2019-01-23T11:16:37.025Z,22.10
2019-01-23T11:19:05.405Z,20.67
2019-01-23T11:21:33.961Z,21.50
2019-01-23T11:24:02.498Z,21.40
2019-01-23T11:26:30.804Z,18.07
2019-01-23T11:28:59.086Z,18.73
2019-01-23T11:31:27.632Z,20.13
2019-01-23T11:33:56.929Z,19.13
2019-01-23T11:36:25.228Z,21.20
2019-01-23T11:38:53.757Z,21.97
2019-01-23T11:41:22.048Z,19.50
2019-01-23T11:43:50.326Z,22.47
2019-01-23T11:46:18.857Z,23.17
2019-01-23T11:48:47.417Z,21.10
2019-01-23T11:51:15.954Z,18.83
2019-01-23T11:53:44.497Z,18.27
2019-01-23T11:56:12.788Z,19.03
2019-01-23T11:58:41.071Z,17.57
2019-01-23T12:01:09.374Z,21.07
2019-01-23T12:03:37.652Z,17.27
2019-01-23T12:06:06.274Z,17.53
2019-01-23T12:08:34.555Z,18.93
2019-01-23T12:11:02.836Z,19.20
2019-01-23T12:13:31.135Z,16.83
2019-01-23T12:15:59.418Z,19.53
2019-01-23T12:18:27.711Z,19.23
2019-01-23T12:20:55.987Z,18.93
2019-01-23T12:23:24.607Z,18.60
2019-01-23T12:25:52.954Z,19.53
2019-01-23T12:28:21.262Z,18.33
2019-01-23T12:30:49.604Z,19.27
2019-01-23T12:33:17.926Z,19.60
2019-01-23T12:35:46.209Z,17.90
2019-01-23T12:38:14.500Z,19.87
2019-01-23T12:40:43.055Z,20.57
2019-01-23T12:43:11.381Z,22.53
2019-01-23T12:45:39.656Z,19.10
2019-01-23T12:48:09.204Z,20.70
2019-01-23T12:50:37.593Z,18.73
2019-01-23T12:53:05.896Z,20.60
2019-01-23T12:55:34.175Z,19.27
2019-01-23T12:58:02.475Z,18.73
2019-01-23T13:00:31.231Z,21.60
2019-01-23T13:02:59.864Z,20.07
2019-01-23T13:05:28.279Z,20.33
2019-01-23T13:07:56.582Z,20.50
2019-01-23T13:10:25.801Z,19.93
2019-01-23T13:12:55.066Z,30.60
2019-01-23T13:15:25.191Z,19.67
2019-01-23T13:17:53.732Z,19.20
2019-01-23T13:20:23.992Z,20.20
2019-01-23T13:22:52.553Z,18.17
2019-01-23T13:25:23.069Z,21.53
2019-01-23T13:27:51.480Z,20.23
2019-01-23T13:30:21.751Z,21.23
2019-01-23T13:32:50.143Z,20.27
2019-01-23T13:35:21.664Z,21.93
2019-01-23T13:37:49.946Z,19.40
2019-01-23T13:40:32.813Z,18.50
2019-01-23T13:43:01.159Z,19.50
2019-01-23T13:45:29.788Z,18.47
2019-01-23T13:47:58.136Z,17.83
2019-01-23T13:50:26.495Z,19.40
2019-01-23T13:52:54.779Z,21.77
2019-01-23T13:55:23.815Z,22.00
2019-01-23T13:57:52.420Z,22.73
2019-01-23T14:00:32.530Z,19.50
2019-01-23T14:03:00.805Z,17.63
2019-01-23T14:05:29.527Z,20.53
2019-01-23T14:07:57.807Z,18.30
2019-01-23T14:10:26.189Z,17.17
2019-01-23T14:12:54.476Z,19.20
2019-01-23T14:15:25.930Z,21.57
2019-01-23T14:17:54.222Z,18.87
2019-01-23T14:20:22.565Z,20.63
2019-01-23T14:22:50.855Z,19.13
2019-01-23T14:25:19.138Z,20.30
2019-01-23T14:27:47.432Z,18.53
2019-01-23T14:30:19.020Z,19.10
2019-01-23T14:32:47.319Z,16.80
2019-01-23T14:35:15.628Z,20.00
2019-01-23T14:37:43.991Z,20.57
2019-01-23T14:40:12.354Z,18.33
2019-01-23T14:42:40.645Z,18.10
2019-01-23T14:45:14.692Z,18.57
2019-01-23T14:47:42.985Z,16.90
2019-01-23T14:50:13.961Z,17.17
2019-01-23T14:52:43.635Z,14.70
2019-01-23T14:55:12.229Z,18.47
2019-01-23T14:57:40.665Z,18.23
2019-01-23T15:00:14.995Z,16.90
2019-01-23T15:02:43.328Z,20.27
2019-01-23T15:05:11.804Z,18.97
2019-01-23T15:07:40.128Z,15.93
2019-01-23T15:10:14.252Z,18.57
2019-01-23T15:12:42.599Z,16.63
2019-01-23T15:15:11.628Z,17.00
2019-01-23T15:17:39.908Z,20.07
2019-01-23T15:20:20.056Z,19.67
2019-01-23T15:22:48.330Z,14.77
2019-01-23T15:25:16.786Z,16.93
2019-01-23T15:27:45.072Z,19.20
2019-01-23T15:30:16.751Z,17.83
2019-01-23T15:32:45.029Z,19.37
2019-01-23T15:35:13.478Z,18.30
2019-01-23T15:37:41.763Z,18.67
2019-01-23T15:40:21.513Z,15.53
2019-01-23T15:42:49.788Z,15.30
2019-01-23T15:45:18.152Z,16.57
2019-01-23T15:47:46.587Z,13.53
2019-01-23T15:50:20.741Z,16.47
2019-01-23T15:52:49.018Z,16.30
2019-01-23T15:55:22.566Z,16.23
2019-01-23T15:57:51.188Z,15.20
2019-01-23T16:00:27.443Z,17.43
2019-01-23T16:02:55.792Z,13.07
2019-01-23T16:05:24.240Z,14.40
2019-01-23T16:07:52.510Z,15.40
2019-01-23T16:10:22.850Z,15.60
2019-01-23T16:12:51.269Z,13.33
2019-01-23T16:15:21.789Z,20.87
2019-01-23T16:17:50.085Z,33.10
2019-01-23T16:20:18.736Z,16.60
2019-01-23T16:22:47.208Z,17.67
2019-01-23T16:25:16.727Z,18.73
2019-01-23T16:27:45.763Z,15.37
2019-01-23T16:30:23.144Z,16.53
2019-01-23T16:32:51.506Z,17.03
2019-01-23T16:35:19.788Z,16.83
2019-01-23T16:37:48.310Z,15.80
2019-01-23T16:40:16.860Z,16.27
2019-01-23T16:42:45.299Z,14.43
2019-01-23T16:45:16.365Z,13.83
2019-01-23T16:47:45.703Z,15.33
2019-01-23T16:50:16.812Z,13.57
2019-01-23T16:52:45.098Z,14.30
2019-01-23T16:55:13.511Z,14.93
2019-01-23T16:57:42.071Z,13.67
2019-01-23T17:00:15.073Z,14.33
2019-01-23T17:02:43.619Z,14.20
2019-01-23T17:05:15.567Z,13.23
2019-01-23T17:07:43.921Z,15.07
2019-01-23T17:10:15.434Z,14.90
2019-01-23T17:12:43.753Z,14.60
2019-01-23T17:15:12.298Z,15.47
2019-01-23T17:17:40.576Z,14.43
2019-01-23T17:20:12.796Z,13.37
2019-01-23T17:22:41.083Z,19.03
2019-01-23T17:25:11.462Z,17.83
2019-01-23T17:27:39.822Z,17.50
2019-01-23T17:30:11.224Z,16.93
2019-01-23T17:32:45.519Z,16.43
2019-01-23T17:35:12.325Z,15.90
2019-01-23T17:37:40.606Z,15.00
2019-01-23T17:40:11.945Z,13.60
2019-01-23T17:42:40.302Z,15.13
2019-01-23T17:45:14.368Z,17.10
2019-01-23T17:47:42.720Z,15.17
2019-01-23T17:50:14.450Z,14.53
2019-01-23T17:52:42.733Z,14.93
2019-01-23T17:55:14.193Z,15.47
2019-01-23T17:57:42.794Z,13.33
2019-01-23T18:00:15.430Z,14.97
2019-01-23T18:02:43.702Z,14.20
2019-01-23T18:05:12.133Z,16.37
2019-01-23T18:07:40.537Z,15.87
2019-01-23T18:10:10.103Z,15.83
2019-01-23T18:12:38.389Z,15.77
2019-01-23T18:15:09.675Z,15.90
2019-01-23T18:17:37.972Z,15.23
2019-01-23T18:20:12.114Z,13.63
2019-01-23T18:22:40.412Z,14.27
2019-01-23T18:25:09.933Z,14.43
2019-01-23T18:27:38.225Z,18.00
2019-01-23T18:30:15.683Z,16.33
2019-01-23T18:32:44.214Z,16.53
2019-01-23T18:35:32.171Z,14.77
2019-01-23T18:38:15.542Z,14.80
2019-01-23T18:41:09.504Z,15.43
2019-01-23T18:44:03.223Z,13.40
2019-01-23T18:47:07.602Z,15.20
2019-01-23T18:49:42.066Z,13.43
2019-01-23T18:52:14.818Z,15.30
2019-01-23T18:54:44.264Z,14.37
2019-01-23T18:57:21.259Z,15.83
2019-01-23T18:59:49.547Z,15.63
2019-01-23T19:02:17.827Z,16.33
2019-01-23T19:04:46.120Z,16.47
2019-01-23T19:07:14.460Z,16.37
2019-01-23T19:09:43.092Z,15.57
2019-01-23T19:12:11.437Z,16.47
2019-01-23T19:14:39.837Z,18.87
2019-01-23T19:17:08.364Z,30.53
2019-01-23T19:19:36.650Z,16.77
2019-01-23T19:22:05.273Z,17.63
2019-01-23T19:24:33.574Z,17.47
2019-01-23T19:27:02.176Z,15.00
2019-01-23T19:29:30.773Z,17.13
2019-01-23T19:31:59.219Z,14.50
2019-01-23T19:34:27.433Z,15.10
2019-01-23T19:36:55.727Z,16.83
2019-01-23T19:39:24.009Z,16.23
2019-01-23T19:41:52.350Z,15.50
2019-01-23T19:44:20.575Z,14.77
2019-01-23T19:46:49.708Z,16.77
2019-01-23T19:49:18.281Z,12.93
2019-01-23T19:51:46.596Z,13.43
2019-01-23T19:54:14.937Z,15.50
2019-01-23T19:56:43.234Z,13.17
2019-01-23T19:59:11.517Z,14.70
2019-01-23T20:01:39.809Z,15.13
2019-01-23T20:04:08.089Z,15.77
2019-01-23T20:06:36.662Z,14.90
2019-01-23T20:09:07.529Z,14.63
2019-01-23T20:11:36.037Z,16.17
2019-01-23T20:14:04.588Z,15.63
2019-01-23T20:16:32.871Z,14.10
2019-01-23T20:19:02.607Z,13.37
2019-01-23T20:21:31.146Z,16.33
2019-01-23T20:23:59.443Z,14.03
2019-01-23T20:26:27.721Z,15.97
2019-01-23T20:28:56.013Z,14.67
2019-01-23T20:31:24.292Z,14.73
2019-01-23T20:33:52.826Z,16.43
2019-01-23T20:36:21.104Z,15.87
2019-01-23T20:38:49.403Z,13.83
2019-01-23T20:41:17.919Z,15.37
2019-01-23T20:43:46.212Z,17.07
2019-01-23T20:46:14.499Z,13.60
2019-01-23T20:48:42.842Z,13.67
2019-01-23T20:51:11.136Z,15.43
2019-01-23T20:53:39.417Z,15.53
2019-01-23T20:56:07.713Z,13.97
2019-01-23T20:58:35.995Z,15.27
2019-01-23T21:01:04.677Z,17.53
2019-01-23T21:03:35.010Z,16.87
2019-01-23T21:06:03.228Z,15.10
2019-01-23T21:08:31.509Z,15.07
2019-01-23T21:11:00.060Z,17.13
2019-01-23T21:13:28.413Z,15.87
2019-01-23T21:15:56.700Z,15.37
2019-01-23T21:18:24.987Z,16.33
2019-01-23T21:20:53.282Z,18.53
2019-01-23T21:23:21.560Z,19.07
2019-01-23T21:25:49.862Z,16.50
2019-01-23T21:28:18.144Z,15.23
2019-01-23T21:30:46.677Z,17.00
2019-01-23T21:33:15.226Z,16.90
2019-01-23T21:35:43.503Z,18.10
2019-01-23T21:38:12.044Z,17.87
2019-01-23T21:40:40.323Z,17.03
2019-01-23T21:43:08.622Z,16.53
2019-01-23T21:45:37.226Z,16.37
2019-01-23T21:48:05.526Z,17.73
2019-01-23T21:50:33.885Z,19.53
2019-01-23T21:53:02.262Z,18.50
2019-01-23T21:55:30.557Z,17.03
2019-01-23T21:57:58.923Z,18.03
2019-01-23T22:00:38.483Z,18.07
2019-01-23T22:03:08.444Z,16.50
2019-01-23T22:05:36.810Z,15.90
2019-01-23T22:08:05.621Z,17.37
2019-01-23T22:10:33.913Z,17.03
2019-01-23T22:13:02.442Z,18.87
2019-01-23T22:15:32.537Z,18.67
2019-01-23T22:18:00.820Z,19.57
2019-01-23T22:20:29.220Z,19.30
2019-01-23T22:22:57.504Z,17.70
2019-01-23T22:25:26.073Z,18.07
2019-01-23T22:27:54.987Z,17.73
2019-01-23T22:30:28.179Z,16.73
2019-01-23T22:32:56.461Z,18.60
2019-01-23T22:35:25.065Z,18.73
2019-01-23T22:37:53.347Z,18.00
2019-01-23T22:40:21.882Z,18.90
2019-01-23T22:42:50.163Z,17.17
2019-01-23T22:45:20.447Z,16.77
2019-01-23T22:47:48.877Z,17.63
2019-01-23T22:50:22.418Z,18.17
2019-01-23T22:52:50.784Z,19.47
2019-01-23T22:55:19.139Z,17.03
2019-01-23T22:57:47.490Z,18.57
2019-01-23T23:00:24.075Z,17.13
2019-01-23T23:02:52.602Z,16.17
2019-01-23T23:05:20.961Z,18.50
2019-01-23T23:07:49.256Z,17.53
2019-01-23T23:10:17.711Z,16.80
2019-01-23T23:12:46.016Z,18.00
2019-01-23T23:15:14.768Z,18.60
2019-01-23T23:17:43.072Z,14.67
2019-01-23T23:20:12.789Z,18.47
2019-01-23T23:22:41.088Z,17.73
2019-01-23T23:25:10.615Z,18.77
2019-01-23T23:27:39.439Z,17.00
2019-01-23T23:30:19.177Z,17.23
2019-01-23T23:32:47.729Z,20.27
2019-01-23T23:35:16.350Z,17.50
2019-01-23T23:37:44.724Z,16.40
2019-01-23T23:40:16.139Z,18.50
2019-01-23T23:42:45.416Z,18.17
2019-01-23T23:45:18.302Z,15.67
2019-01-23T23:47:46.931Z,18.10
2019-01-23T23:50:16.165Z,18.47
2019-01-23T23:52:44.534Z,21.63
2019-01-23T23:55:14.801Z,23.00
2019-01-23T23:57:43.100Z,21.23
